Sylvan Lake, Michigan
Current Conditions -  °F | °C
As of 4:53 AM on Sunday 21 Dec 2014 (Local Time) from KPTK Reporting Station
Haze Haze  
Wind Chill: 24°   Ceiling: 6000
Heat Index: 24°   Visibility: 6mi
Dew Point: 21°   Wind: 0mph
Humidity: 88%   Direction: NA
Pressure: 30.27"   Gusts: NA
Location:  42.6112°N, 83.3377°W
Report Text: KPTK 210953Z AUTO 00000KT 6SM BR OVC060 M04/M06 A3027 RMK AO2 SLP262 T10441061
Loading
Personal Weather Stations






























Interactive Weather Map New forecast layout! Learn more

10-Day Weather Forecast

Advertisements
Track Severe Weather on mobile